sensor_id;sensor_type;location;lat;lon;timestamp;P1;durP1;ratioP1;P2;durP2;ratioP2
39196;SDS011;42889;51.112;13.772;2022-12-07T00:01:05;16.58;;;6.38;;
39196;SDS011;42889;51.112;13.772;2022-12-07T00:03:33;16.08;;;6.18;;
39196;SDS011;42889;51.112;13.772;2022-12-07T00:06:00;13.88;;;5.45;;
39196;SDS011;42889;51.112;13.772;2022-12-07T00:08:28;14.10;;;5.72;;
39196;SDS011;42889;51.112;13.772;2022-12-07T00:11:00;16.08;;;5.68;;
39196;SDS011;42889;51.112;13.772;2022-12-07T00:13:31;14.43;;;5.55;;
39196;SDS011;42889;51.112;13.772;2022-12-07T00:18:33;11.25;;;4.68;;
39196;SDS011;42889;51.112;13.772;2022-12-07T00:21:07;13.18;;;5.40;;
39196;SDS011;42889;51.112;13.772;2022-12-07T00:23:37;14.80;;;5.60;;
39196;SDS011;42889;51.112;13.772;2022-12-07T00:26:08;12.93;;;4.63;;
39196;SDS011;42889;51.112;13.772;2022-12-07T00:28:36;12.82;;;5.03;;
39196;SDS011;42889;51.112;13.772;2022-12-07T00:31:04;13.13;;;5.20;;
39196;SDS011;42889;51.112;13.772;2022-12-07T00:33:36;14.30;;;5.25;;
39196;SDS011;42889;51.112;13.772;2022-12-07T00:36:03;14.02;;;5.43;;
39196;SDS011;42889;51.112;13.772;2022-12-07T00:38:34;14.70;;;5.78;;
39196;SDS011;42889;51.112;13.772;2022-12-07T00:41:06;13.10;;;5.68;;
39196;SDS011;42889;51.112;13.772;2022-12-07T00:43:36;15.27;;;6.35;;
39196;SDS011;42889;51.112;13.772;2022-12-07T00:46:03;14.18;;;5.07;;
39196;SDS011;42889;51.112;13.772;2022-12-07T00:48:30;11.85;;;5.00;;
39196;SDS011;42889;51.112;13.772;2022-12-07T00:50:57;13.73;;;5.57;;
39196;SDS011;42889;51.112;13.772;2022-12-07T00:53:24;13.00;;;5.47;;
39196;SDS011;42889;51.112;13.772;2022-12-07T00:55:50;13.73;;;5.57;;
39196;SDS011;42889;51.112;13.772;2022-12-07T00:58:19;13.18;;;5.20;;
39196;SDS011;42889;51.112;13.772;2022-12-07T01:00:45;11.88;;;4.93;;
39196;SDS011;42889;51.112;13.772;2022-12-07T01:03:12;12.48;;;5.18;;
39196;SDS011;42889;51.112;13.772;2022-12-07T01:05:53;12.32;;;5.10;;
39196;SDS011;42889;51.112;13.772;2022-12-07T01:08:21;11.65;;;4.53;;
39196;SDS011;42889;51.112;13.772;2022-12-07T01:10:49;12.20;;;5.10;;
39196;SDS011;42889;51.112;13.772;2022-12-07T01:13:23;14.80;;;5.43;;
39196;SDS011;42889;51.112;13.772;2022-12-07T01:15:50;13.75;;;4.95;;
39196;SDS011;42889;51.112;13.772;2022-12-07T01:18:16;16.30;;;5.72;;
39196;SDS011;42889;51.112;13.772;2022-12-07T01:20:43;13.30;;;4.85;;
39196;SDS011;42889;51.112;13.772;2022-12-07T01:23:10;12.93;;;5.05;;
39196;SDS011;42889;51.112;13.772;2022-12-07T01:25:36;16.38;;;6.75;;
39196;SDS011;42889;51.112;13.772;2022-12-07T01:28:03;15.57;;;5.60;;
39196;SDS011;42889;51.112;13.772;2022-12-07T01:30:29;17.50;;;6.15;;
39196;SDS011;42889;51.112;13.772;2022-12-07T01:32:56;15.45;;;5.60;;
39196;SDS011;42889;51.112;13.772;2022-12-07T01:35:23;13.00;;;5.20;;
39196;SDS011;42889;51.112;13.772;2022-12-07T01:37:49;13.43;;;5.13;;
39196;SDS011;42889;51.112;13.772;2022-12-07T01:40:17;15.32;;;5.70;;
39196;SDS011;42889;51.112;13.772;2022-12-07T01:42:44;14.70;;;5.50;;
39196;SDS011;42889;51.112;13.772;2022-12-07T01:48:02;13.50;;;5.47;;
39196;SDS011;42889;51.112;13.772;2022-12-07T01:50:30;13.27;;;5.07;;
39196;SDS011;42889;51.112;13.772;2022-12-07T01:53:00;16.00;;;5.47;;
39196;SDS011;42889;51.112;13.772;2022-12-07T01:55:30;16.15;;;5.45;;
39196;SDS011;42889;51.112;13.772;2022-12-07T01:57:57;15.38;;;5.05;;
39196;SDS011;42889;51.112;13.772;2022-12-07T02:00:24;16.90;;;5.75;;
39196;SDS011;42889;51.112;13.772;2022-12-07T02:02:52;15.02;;;5.93;;
39196;SDS011;42889;51.112;13.772;2022-12-07T02:05:22;13.90;;;4.55;;
39196;SDS011;42889;51.112;13.772;2022-12-07T02:07:51;15.25;;;5.95;;
39196;SDS011;42889;51.112;13.772;2022-12-07T02:10:25;12.77;;;5.47;;
39196;SDS011;42889;51.112;13.772;2022-12-07T02:12:57;16.90;;;5.28;;
39196;SDS011;42889;51.112;13.772;2022-12-07T02:29:58;11.05;;;4.10;;
39196;SDS011;42889;51.112;13.772;2022-12-07T02:40:34;10.55;;;3.90;;
39196;SDS011;42889;51.112;13.772;2022-12-07T02:43:08;12.27;;;4.70;;
39196;SDS011;42889;51.112;13.772;2022-12-07T02:45:41;15.02;;;5.32;;
39196;SDS011;42889;51.112;13.772;2022-12-07T02:48:10;13.70;;;5.75;;
39196;SDS011;42889;51.112;13.772;2022-12-07T02:50:44;11.97;;;4.70;;
39196;SDS011;42889;51.112;13.772;2022-12-07T02:53:33;12.00;;;4.75;;
39196;SDS011;42889;51.112;13.772;2022-12-07T02:56:06;13.60;;;5.30;;
39196;SDS011;42889;51.112;13.772;2022-12-07T03:01:18;10.77;;;4.10;;
39196;SDS011;42889;51.112;13.772;2022-12-07T03:04:01;12.00;;;5.13;;
39196;SDS011;42889;51.112;13.772;2022-12-07T03:06:48;10.73;;;4.32;;
39196;SDS011;42889;51.112;13.772;2022-12-07T03:09:41;10.57;;;4.18;;
39196;SDS011;42889;51.112;13.772;2022-12-07T03:12:21;12.30;;;4.95;;
39196;SDS011;42889;51.112;13.772;2022-12-07T03:14:59;13.00;;;4.53;;
39196;SDS011;42889;51.112;13.772;2022-12-07T03:17:32;13.32;;;4.63;;
39196;SDS011;42889;51.112;13.772;2022-12-07T03:20:04;12.00;;;4.90;;
39196;SDS011;42889;51.112;13.772;2022-12-07T03:22:34;11.77;;;4.35;;
39196;SDS011;42889;51.112;13.772;2022-12-07T03:25:06;12.50;;;4.70;;
39196;SDS011;42889;51.112;13.772;2022-12-07T03:27:38;13.07;;;4.75;;
39196;SDS011;42889;51.112;13.772;2022-12-07T03:30:23;13.23;;;4.93;;
39196;SDS011;42889;51.112;13.772;2022-12-07T03:36:28;12.10;;;4.63;;
39196;SDS011;42889;51.112;13.772;2022-12-07T03:38:50;12.75;;;5.28;;
39196;SDS011;42889;51.112;13.772;2022-12-07T03:41:29;12.98;;;4.93;;
39196;SDS011;42889;51.112;13.772;2022-12-07T03:43:58;14.00;;;5.63;;
39196;SDS011;42889;51.112;13.772;2022-12-07T03:49:04;14.38;;;5.63;;
39196;SDS011;42889;51.112;13.772;2022-12-07T03:56:54;16.85;;;5.93;;
39196;SDS011;42889;51.112;13.772;2022-12-07T03:59:23;14.32;;;5.40;;
39196;SDS011;42889;51.112;13.772;2022-12-07T04:01:55;13.65;;;6.03;;
39196;SDS011;42889;51.112;13.772;2022-12-07T04:04:27;15.85;;;5.97;;
39196;SDS011;42889;51.112;13.772;2022-12-07T04:06:54;14.73;;;5.72;;
39196;SDS011;42889;51.112;13.772;2022-12-07T04:09:20;14.75;;;5.68;;
39196;SDS011;42889;51.112;13.772;2022-12-07T04:11:47;14.23;;;5.57;;
39196;SDS011;42889;51.112;13.772;2022-12-07T04:14:14;13.45;;;5.97;;
39196;SDS011;42889;51.112;13.772;2022-12-07T04:16:54;14.88;;;5.90;;
39196;SDS011;42889;51.112;13.772;2022-12-07T04:19:23;15.73;;;5.70;;
39196;SDS011;42889;51.112;13.772;2022-12-07T04:21:55;18.27;;;7.15;;
39196;SDS011;42889;51.112;13.772;2022-12-07T04:24:23;14.82;;;5.97;;
39196;SDS011;42889;51.112;13.772;2022-12-07T04:26:51;17.23;;;6.30;;
39196;SDS011;42889;51.112;13.772;2022-12-07T04:29:18;16.52;;;6.35;;
39196;SDS011;42889;51.112;13.772;2022-12-07T04:31:45;16.17;;;6.53;;
39196;SDS011;42889;51.112;13.772;2022-12-07T04:34:12;14.23;;;5.63;;
39196;SDS011;42889;51.112;13.772;2022-12-07T04:36:39;16.67;;;6.03;;
39196;SDS011;42889;51.112;13.772;2022-12-07T04:39:07;15.38;;;5.68;;
39196;SDS011;42889;51.112;13.772;2022-12-07T04:41:39;14.00;;;6.00;;
39196;SDS011;42889;51.112;13.772;2022-12-07T04:44:06;15.65;;;5.70;;
39196;SDS011;42889;51.112;13.772;2022-12-07T04:46:33;16.85;;;6.15;;
39196;SDS011;42889;51.112;13.772;2022-12-07T04:49:00;15.95;;;6.18;;
39196;SDS011;42889;51.112;13.772;2022-12-07T04:51:27;16.75;;;6.25;;
39196;SDS011;42889;51.112;13.772;2022-12-07T04:53:55;14.68;;;6.10;;
39196;SDS011;42889;51.112;13.772;2022-12-07T04:56:22;17.48;;;6.32;;
39196;SDS011;42889;51.112;13.772;2022-12-07T04:58:50;18.70;;;6.30;;
39196;SDS011;42889;51.112;13.772;2022-12-07T05:01:18;17.50;;;6.38;;
39196;SDS011;42889;51.112;13.772;2022-12-07T05:03:46;18.73;;;7.30;;
39196;SDS011;42889;51.112;13.772;2022-12-07T05:06:13;16.73;;;6.30;;
39196;SDS011;42889;51.112;13.772;2022-12-07T05:08:40;14.43;;;5.35;;
39196;SDS011;42889;51.112;13.772;2022-12-07T05:11:08;18.30;;;5.75;;
39196;SDS011;42889;51.112;13.772;2022-12-07T05:13:35;13.02;;;5.60;;
39196;SDS011;42889;51.112;13.772;2022-12-07T05:16:02;15.63;;;5.50;;
39196;SDS011;42889;51.112;13.772;2022-12-07T05:18:29;15.82;;;5.93;;
39196;SDS011;42889;51.112;13.772;2022-12-07T05:20:56;17.90;;;6.10;;
39196;SDS011;42889;51.112;13.772;2022-12-07T05:23:22;15.73;;;5.97;;
39196;SDS011;42889;51.112;13.772;2022-12-07T05:25:49;13.82;;;5.82;;
39196;SDS011;42889;51.112;13.772;2022-12-07T05:28:16;13.23;;;5.30;;
39196;SDS011;42889;51.112;13.772;2022-12-07T05:30:43;15.15;;;6.18;;
39196;SDS011;42889;51.112;13.772;2022-12-07T05:33:09;15.20;;;5.70;;
39196;SDS011;42889;51.112;13.772;2022-12-07T05:35:36;14.40;;;6.00;;
39196;SDS011;42889;51.112;13.772;2022-12-07T05:38:04;13.30;;;4.45;;
39196;SDS011;42889;51.112;13.772;2022-12-07T05:40:30;13.82;;;4.95;;
39196;SDS011;42889;51.112;13.772;2022-12-07T05:42:57;12.88;;;5.40;;
39196;SDS011;42889;51.112;13.772;2022-12-07T05:45:30;11.77;;;4.20;;
39196;SDS011;42889;51.112;13.772;2022-12-07T05:47:57;12.82;;;5.15;;
39196;SDS011;42889;51.112;13.772;2022-12-07T05:50:23;12.52;;;4.72;;
39196;SDS011;42889;51.112;13.772;2022-12-07T05:52:59;11.00;;;4.97;;
39196;SDS011;42889;51.112;13.772;2022-12-07T05:55:26;10.48;;;4.60;;
39196;SDS011;42889;51.112;13.772;2022-12-07T05:57:52;12.40;;;4.68;;
39196;SDS011;42889;51.112;13.772;2022-12-07T06:00:37;11.00;;;4.30;;
39196;SDS011;42889;51.112;13.772;2022-12-07T06:03:04;8.68;;;3.60;;
39196;SDS011;42889;51.112;13.772;2022-12-07T06:05:31;9.05;;;3.78;;
39196;SDS011;42889;51.112;13.772;2022-12-07T06:07:57;10.32;;;4.43;;
39196;SDS011;42889;51.112;13.772;2022-12-07T06:10:31;11.13;;;4.18;;
39196;SDS011;42889;51.112;13.772;2022-12-07T06:12:57;13.38;;;4.32;;
39196;SDS011;42889;51.112;13.772;2022-12-07T06:15:24;12.50;;;4.80;;
39196;SDS011;42889;51.112;13.772;2022-12-07T06:17:50;11.93;;;4.63;;
39196;SDS011;42889;51.112;13.772;2022-12-07T06:20:17;9.05;;;4.13;;
39196;SDS011;42889;51.112;13.772;2022-12-07T06:22:44;10.20;;;3.33;;
39196;SDS011;42889;51.112;13.772;2022-12-07T06:25:10;8.10;;;3.28;;
39196;SDS011;42889;51.112;13.772;2022-12-07T06:27:37;7.85;;;3.03;;
39196;SDS011;42889;51.112;13.772;2022-12-07T06:30:03;7.40;;;3.10;;
39196;SDS011;42889;51.112;13.772;2022-12-07T06:32:33;7.28;;;2.90;;
39196;SDS011;42889;51.112;13.772;2022-12-07T06:34:59;9.65;;;3.58;;
39196;SDS011;42889;51.112;13.772;2022-12-07T06:37:26;8.30;;;2.67;;
39196;SDS011;42889;51.112;13.772;2022-12-07T06:39:53;5.55;;;1.80;;
39196;SDS011;42889;51.112;13.772;2022-12-07T06:42:20;8.15;;;3.45;;
39196;SDS011;42889;51.112;13.772;2022-12-07T06:44:46;6.68;;;2.70;;
39196;SDS011;42889;51.112;13.772;2022-12-07T06:47:13;7.57;;;2.55;;
39196;SDS011;42889;51.112;13.772;2022-12-07T06:49:59;6.20;;;2.33;;
39196;SDS011;42889;51.112;13.772;2022-12-07T06:52:26;5.50;;;1.95;;
39196;SDS011;42889;51.112;13.772;2022-12-07T06:54:53;5.82;;;2.00;;
39196;SDS011;42889;51.112;13.772;2022-12-07T06:57:20;7.38;;;2.50;;
39196;SDS011;42889;51.112;13.772;2022-12-07T06:59:46;8.50;;;3.83;;
39196;SDS011;42889;51.112;13.772;2022-12-07T07:02:13;5.97;;;2.75;;
39196;SDS011;42889;51.112;13.772;2022-12-07T07:04:39;5.35;;;2.05;;
39196;SDS011;42889;51.112;13.772;2022-12-07T07:07:06;7.97;;;2.97;;
39196;SDS011;42889;51.112;13.772;2022-12-07T07:09:33;6.25;;;2.22;;
39196;SDS011;42889;51.112;13.772;2022-12-07T07:11:59;6.35;;;2.80;;
39196;SDS011;42889;51.112;13.772;2022-12-07T07:14:26;6.63;;;2.63;;
39196;SDS011;42889;51.112;13.772;2022-12-07T07:16:53;10.80;;;3.05;;
39196;SDS011;42889;51.112;13.772;2022-12-07T07:19:20;6.32;;;2.30;;
39196;SDS011;42889;51.112;13.772;2022-12-07T07:21:46;8.02;;;3.58;;
39196;SDS011;42889;51.112;13.772;2022-12-07T07:24:13;7.10;;;3.30;;
39196;SDS011;42889;51.112;13.772;2022-12-07T07:26:40;5.05;;;2.03;;
39196;SDS011;42889;51.112;13.772;2022-12-07T07:29:06;6.20;;;2.42;;
39196;SDS011;42889;51.112;13.772;2022-12-07T07:31:33;5.65;;;2.53;;
39196;SDS011;42889;51.112;13.772;2022-12-07T07:34:01;6.70;;;2.75;;
39196;SDS011;42889;51.112;13.772;2022-12-07T07:36:28;7.60;;;2.80;;
39196;SDS011;42889;51.112;13.772;2022-12-07T07:38:54;6.80;;;3.13;;
39196;SDS011;42889;51.112;13.772;2022-12-07T07:41:21;7.28;;;2.70;;
39196;SDS011;42889;51.112;13.772;2022-12-07T07:43:48;7.65;;;2.78;;
39196;SDS011;42889;51.112;13.772;2022-12-07T07:46:14;4.60;;;2.33;;
39196;SDS011;42889;51.112;13.772;2022-12-07T07:48:41;4.03;;;1.67;;
39196;SDS011;42889;51.112;13.772;2022-12-07T07:51:07;7.60;;;3.22;;
39196;SDS011;42889;51.112;13.772;2022-12-07T07:53:34;8.15;;;2.90;;
39196;SDS011;42889;51.112;13.772;2022-12-07T07:56:01;8.82;;;3.08;;
39196;SDS011;42889;51.112;13.772;2022-12-07T07:58:27;7.82;;;2.88;;
39196;SDS011;42889;51.112;13.772;2022-12-07T08:00:54;5.70;;;2.45;;
39196;SDS011;42889;51.112;13.772;2022-12-07T08:03:21;6.00;;;2.22;;
39196;SDS011;42889;51.112;13.772;2022-12-07T08:05:47;9.95;;;3.33;;
39196;SDS011;42889;51.112;13.772;2022-12-07T08:08:14;7.03;;;2.97;;
39196;SDS011;42889;51.112;13.772;2022-12-07T08:10:40;7.85;;;3.40;;
39196;SDS011;42889;51.112;13.772;2022-12-07T08:13:07;8.93;;;3.38;;
39196;SDS011;42889;51.112;13.772;2022-12-07T08:15:37;10.75;;;4.80;;
39196;SDS011;42889;51.112;13.772;2022-12-07T08:18:05;11.00;;;4.40;;
39196;SDS011;42889;51.112;13.772;2022-12-07T08:20:32;8.13;;;3.55;;
39196;SDS011;42889;51.112;13.772;2022-12-07T08:23:00;10.30;;;4.00;;
39196;SDS011;42889;51.112;13.772;2022-12-07T08:25:27;11.32;;;4.90;;
39196;SDS011;42889;51.112;13.772;2022-12-07T08:27:54;12.32;;;4.95;;
39196;SDS011;42889;51.112;13.772;2022-12-07T08:30:20;10.80;;;4.18;;
39196;SDS011;42889;51.112;13.772;2022-12-07T08:32:48;9.90;;;4.20;;
39196;SDS011;42889;51.112;13.772;2022-12-07T08:35:15;10.45;;;4.60;;
39196;SDS011;42889;51.112;13.772;2022-12-07T08:37:42;11.35;;;4.90;;
39196;SDS011;42889;51.112;13.772;2022-12-07T08:40:09;11.60;;;4.65;;
39196;SDS011;42889;51.112;13.772;2022-12-07T08:42:37;8.88;;;3.85;;
39196;SDS011;42889;51.112;13.772;2022-12-07T08:45:06;11.45;;;4.72;;
39196;SDS011;42889;51.112;13.772;2022-12-07T08:47:36;11.55;;;5.40;;
39196;SDS011;42889;51.112;13.772;2022-12-07T08:50:05;10.65;;;4.72;;
39196;SDS011;42889;51.112;13.772;2022-12-07T08:52:34;12.32;;;5.28;;
39196;SDS011;42889;51.112;13.772;2022-12-07T08:55:02;12.00;;;5.18;;
39196;SDS011;42889;51.112;13.772;2022-12-07T08:57:31;10.35;;;4.25;;
39196;SDS011;42889;51.112;13.772;2022-12-07T09:00:00;15.30;;;4.78;;
39196;SDS011;42889;51.112;13.772;2022-12-07T09:02:27;11.63;;;4.60;;
39196;SDS011;42889;51.112;13.772;2022-12-07T09:04:54;10.70;;;5.00;;
39196;SDS011;42889;51.112;13.772;2022-12-07T09:07:20;12.15;;;4.20;;
39196;SDS011;42889;51.112;13.772;2022-12-07T09:09:47;9.90;;;4.65;;
39196;SDS011;42889;51.112;13.772;2022-12-07T09:12:13;9.68;;;4.35;;
39196;SDS011;42889;51.112;13.772;2022-12-07T09:14:40;11.35;;;4.70;;
39196;SDS011;42889;51.112;13.772;2022-12-07T09:17:07;7.10;;;3.30;;
39196;SDS011;42889;51.112;13.772;2022-12-07T09:19:35;10.55;;;4.20;;
39196;SDS011;42889;51.112;13.772;2022-12-07T09:22:03;9.30;;;4.45;;
39196;SDS011;42889;51.112;13.772;2022-12-07T09:24:31;11.18;;;4.70;;
39196;SDS011;42889;51.112;13.772;2022-12-07T09:26:58;9.27;;;3.85;;
39196;SDS011;42889;51.112;13.772;2022-12-07T09:29:24;9.88;;;4.40;;
39196;SDS011;42889;51.112;13.772;2022-12-07T09:31:52;8.38;;;3.60;;
39196;SDS011;42889;51.112;13.772;2022-12-07T09:34:19;9.00;;;3.35;;
39196;SDS011;42889;51.112;13.772;2022-12-07T09:36:46;9.23;;;4.10;;
39196;SDS011;42889;51.112;13.772;2022-12-07T09:39:13;7.85;;;3.55;;
39196;SDS011;42889;51.112;13.772;2022-12-07T09:41:40;9.20;;;3.60;;
39196;SDS011;42889;51.112;13.772;2022-12-07T09:44:10;9.93;;;4.07;;
39196;SDS011;42889;51.112;13.772;2022-12-07T09:46:40;9.60;;;3.55;;
39196;SDS011;42889;51.112;13.772;2022-12-07T09:49:13;8.85;;;4.03;;
39196;SDS011;42889;51.112;13.772;2022-12-07T09:51:43;8.57;;;3.45;;
39196;SDS011;42889;51.112;13.772;2022-12-07T09:54:14;10.77;;;4.25;;
39196;SDS011;42889;51.112;13.772;2022-12-07T09:56:42;8.75;;;3.72;;
39196;SDS011;42889;51.112;13.772;2022-12-07T09:59:12;8.85;;;2.90;;
39196;SDS011;42889;51.112;13.772;2022-12-07T10:01:45;6.80;;;2.17;;
39196;SDS011;42889;51.112;13.772;2022-12-07T10:04:15;9.60;;;4.63;;
39196;SDS011;42889;51.112;13.772;2022-12-07T10:06:45;8.57;;;3.53;;
39196;SDS011;42889;51.112;13.772;2022-12-07T10:09:12;6.47;;;2.83;;
39196;SDS011;42889;51.112;13.772;2022-12-07T10:12:00;6.53;;;3.00;;
39196;SDS011;42889;51.112;13.772;2022-12-07T10:14:31;7.28;;;3.42;;
39196;SDS011;42889;51.112;13.772;2022-12-07T10:17:41;8.27;;;3.50;;
39196;SDS011;42889;51.112;13.772;2022-12-07T10:22:56;9.65;;;3.05;;
39196;SDS011;42889;51.112;13.772;2022-12-07T10:25:25;8.95;;;2.47;;
39196;SDS011;42889;51.112;13.772;2022-12-07T10:28:14;7.75;;;3.22;;
39196;SDS011;42889;51.112;13.772;2022-12-07T10:30:46;8.00;;;3.08;;
39196;SDS011;42889;51.112;13.772;2022-12-07T10:35:56;6.38;;;2.53;;
39196;SDS011;42889;51.112;13.772;2022-12-07T10:38:24;8.60;;;2.97;;
39196;SDS011;42889;51.112;13.772;2022-12-07T10:41:02;8.38;;;2.70;;
39196;SDS011;42889;51.112;13.772;2022-12-07T10:43:33;5.35;;;2.05;;
39196;SDS011;42889;51.112;13.772;2022-12-07T10:49:05;9.20;;;2.65;;
39196;SDS011;42889;51.112;13.772;2022-12-07T10:59:51;8.80;;;3.03;;
39196;SDS011;42889;51.112;13.772;2022-12-07T11:08:01;6.65;;;2.53;;
39196;SDS011;42889;51.112;13.772;2022-12-07T11:10:41;7.03;;;3.17;;
39196;SDS011;42889;51.112;13.772;2022-12-07T11:26:45;7.82;;;3.10;;
39196;SDS011;42889;51.112;13.772;2022-12-07T11:29:39;7.10;;;2.95;;
39196;SDS011;42889;51.112;13.772;2022-12-07T11:32:41;8.60;;;4.25;;
39196;SDS011;42889;51.112;13.772;2022-12-07T11:35:43;7.80;;;2.90;;
39196;SDS011;42889;51.112;13.772;2022-12-07T11:38:33;9.45;;;2.97;;
39196;SDS011;42889;51.112;13.772;2022-12-07T11:41:09;6.70;;;2.80;;
39196;SDS011;42889;51.112;13.772;2022-12-07T11:46:15;6.47;;;2.78;;
39196;SDS011;42889;51.112;13.772;2022-12-07T11:48:45;3.75;;;1.63;;
39196;SDS011;42889;51.112;13.772;2022-12-07T11:51:17;5.60;;;2.22;;
39196;SDS011;42889;51.112;13.772;2022-12-07T11:56:43;6.50;;;2.30;;
39196;SDS011;42889;51.112;13.772;2022-12-07T11:59:29;7.43;;;3.40;;
39196;SDS011;42889;51.112;13.772;2022-12-07T12:02:09;7.63;;;2.83;;
39196;SDS011;42889;51.112;13.772;2022-12-07T12:04:56;7.10;;;3.10;;
39196;SDS011;42889;51.112;13.772;2022-12-07T12:07:29;6.22;;;2.65;;
39196;SDS011;42889;51.112;13.772;2022-12-07T12:13:05;9.50;;;3.72;;
39196;SDS011;42889;51.112;13.772;2022-12-07T12:21:56;7.75;;;3.45;;
39196;SDS011;42889;51.112;13.772;2022-12-07T12:24:30;10.82;;;3.47;;
39196;SDS011;42889;51.112;13.772;2022-12-07T12:27:03;7.40;;;3.22;;
39196;SDS011;42889;51.112;13.772;2022-12-07T12:29:39;7.10;;;3.70;;
39196;SDS011;42889;51.112;13.772;2022-12-07T12:32:17;8.32;;;3.72;;
39196;SDS011;42889;51.112;13.772;2022-12-07T12:45:25;8.68;;;3.55;;
39196;SDS011;42889;51.112;13.772;2022-12-07T12:47:57;12.80;;;4.15;;
39196;SDS011;42889;51.112;13.772;2022-12-07T12:50:37;6.85;;;2.67;;
39196;SDS011;42889;51.112;13.772;2022-12-07T12:53:11;7.22;;;3.17;;
39196;SDS011;42889;51.112;13.772;2022-12-07T13:00:44;9.00;;;2.58;;
39196;SDS011;42889;51.112;13.772;2022-12-07T13:03:24;7.93;;;3.28;;
39196;SDS011;42889;51.112;13.772;2022-12-07T13:09:01;6.32;;;1.98;;
39196;SDS011;42889;51.112;13.772;2022-12-07T13:11:29;6.95;;;2.38;;
39196;SDS011;42889;51.112;13.772;2022-12-07T13:17:12;3.85;;;1.15;;
39196;SDS011;42889;51.112;13.772;2022-12-07T13:20:05;3.60;;;1.42;;
39196;SDS011;42889;51.112;13.772;2022-12-07T13:22:43;6.00;;;1.83;;
39196;SDS011;42889;51.112;13.772;2022-12-07T13:25:27;5.35;;;1.63;;
39196;SDS011;42889;51.112;13.772;2022-12-07T13:28:10;4.45;;;1.48;;
39196;SDS011;42889;51.112;13.772;2022-12-07T13:30:46;3.13;;;0.98;;
39196;SDS011;42889;51.112;13.772;2022-12-07T13:33:20;2.90;;;0.90;;
39196;SDS011;42889;51.112;13.772;2022-12-07T13:35:47;2.22;;;0.73;;
39196;SDS011;42889;51.112;13.772;2022-12-07T13:38:24;3.65;;;0.70;;
39196;SDS011;42889;51.112;13.772;2022-12-07T13:41:01;5.28;;;1.75;;
39196;SDS011;42889;51.112;13.772;2022-12-07T13:43:28;4.10;;;1.50;;
39196;SDS011;42889;51.112;13.772;2022-12-07T13:45:58;7.95;;;2.10;;
39196;SDS011;42889;51.112;13.772;2022-12-07T13:48:31;8.18;;;3.10;;
39196;SDS011;42889;51.112;13.772;2022-12-07T13:51:20;8.18;;;2.22;;
39196;SDS011;42889;51.112;13.772;2022-12-07T13:54:00;7.30;;;2.90;;
39196;SDS011;42889;51.112;13.772;2022-12-07T13:56:35;7.28;;;2.90;;
39196;SDS011;42889;51.112;13.772;2022-12-07T13:59:03;10.07;;;2.88;;
39196;SDS011;42889;51.112;13.772;2022-12-07T14:01:38;6.70;;;2.70;;
39196;SDS011;42889;51.112;13.772;2022-12-07T14:06:50;8.52;;;2.90;;
39196;SDS011;42889;51.112;13.772;2022-12-07T14:09:21;5.90;;;2.58;;
39196;SDS011;42889;51.112;13.772;2022-12-07T14:11:49;6.35;;;2.92;;
39196;SDS011;42889;51.112;13.772;2022-12-07T14:14:19;6.35;;;2.95;;
39196;SDS011;42889;51.112;13.772;2022-12-07T14:19:41;7.30;;;3.08;;
39196;SDS011;42889;51.112;13.772;2022-12-07T14:24:50;10.10;;;3.67;;
39196;SDS011;42889;51.112;13.772;2022-12-07T14:27:18;10.10;;;4.25;;
39196;SDS011;42889;51.112;13.772;2022-12-07T14:29:46;7.82;;;3.55;;
39196;SDS011;42889;51.112;13.772;2022-12-07T14:32:24;6.75;;;3.60;;
39196;SDS011;42889;51.112;13.772;2022-12-07T14:35:17;10.30;;;3.42;;
39196;SDS011;42889;51.112;13.772;2022-12-07T14:37:44;6.32;;;2.90;;
39196;SDS011;42889;51.112;13.772;2022-12-07T14:40:14;7.40;;;2.93;;
39196;SDS011;42889;51.112;13.772;2022-12-07T14:42:43;6.85;;;2.80;;
39196;SDS011;42889;51.112;13.772;2022-12-07T14:45:13;6.47;;;2.97;;
39196;SDS011;42889;51.112;13.772;2022-12-07T14:47:42;6.95;;;2.75;;
39196;SDS011;42889;51.112;13.772;2022-12-07T14:50:28;7.53;;;2.67;;
39196;SDS011;42889;51.112;13.772;2022-12-07T14:52:56;7.88;;;3.13;;
39196;SDS011;42889;51.112;13.772;2022-12-07T14:55:46;8.32;;;2.80;;
39196;SDS011;42889;51.112;13.772;2022-12-07T14:58:13;5.85;;;2.65;;
39196;SDS011;42889;51.112;13.772;2022-12-07T15:00:41;8.70;;;3.15;;
39196;SDS011;42889;51.112;13.772;2022-12-07T15:03:09;5.97;;;2.70;;
39196;SDS011;42889;51.112;13.772;2022-12-07T15:05:36;5.10;;;2.45;;
39196;SDS011;42889;51.112;13.772;2022-12-07T15:08:03;6.53;;;2.72;;
39196;SDS011;42889;51.112;13.772;2022-12-07T15:10:33;9.32;;;3.00;;
39196;SDS011;42889;51.112;13.772;2022-12-07T15:13:01;6.97;;;2.47;;
39196;SDS011;42889;51.112;13.772;2022-12-07T15:15:48;8.25;;;3.35;;
39196;SDS011;42889;51.112;13.772;2022-12-07T15:18:16;11.95;;;3.70;;
39196;SDS011;42889;51.112;13.772;2022-12-07T15:20:44;9.95;;;4.25;;
39196;SDS011;42889;51.112;13.772;2022-12-07T15:23:11;9.05;;;3.90;;
39196;SDS011;42889;51.112;13.772;2022-12-07T15:25:42;5.70;;;1.95;;
39196;SDS011;42889;51.112;13.772;2022-12-07T15:28:10;4.78;;;1.55;;
39196;SDS011;42889;51.112;13.772;2022-12-07T15:30:40;4.57;;;1.50;;
39196;SDS011;42889;51.112;13.772;2022-12-07T15:33:09;3.85;;;1.65;;
39196;SDS011;42889;51.112;13.772;2022-12-07T15:35:43;4.38;;;1.70;;
39196;SDS011;42889;51.112;13.772;2022-12-07T15:38:10;5.55;;;1.88;;
39196;SDS011;42889;51.112;13.772;2022-12-07T15:40:37;5.78;;;1.88;;
39196;SDS011;42889;51.112;13.772;2022-12-07T15:43:04;5.18;;;2.03;;
39196;SDS011;42889;51.112;13.772;2022-12-07T15:45:51;5.63;;;2.40;;
39196;SDS011;42889;51.112;13.772;2022-12-07T15:48:17;6.22;;;2.30;;
39196;SDS011;42889;51.112;13.772;2022-12-07T15:50:53;5.22;;;2.08;;
39196;SDS011;42889;51.112;13.772;2022-12-07T15:53:27;7.15;;;2.58;;
39196;SDS011;42889;51.112;13.772;2022-12-07T15:55:54;5.75;;;2.63;;
39196;SDS011;42889;51.112;13.772;2022-12-07T15:58:20;7.05;;;2.85;;
39196;SDS011;42889;51.112;13.772;2022-12-07T16:00:47;5.32;;;2.40;;
39196;SDS011;42889;51.112;13.772;2022-12-07T16:03:14;8.38;;;3.55;;
39196;SDS011;42889;51.112;13.772;2022-12-07T16:05:40;9.95;;;3.58;;
39196;SDS011;42889;51.112;13.772;2022-12-07T16:08:07;10.65;;;3.40;;
39196;SDS011;42889;51.112;13.772;2022-12-07T16:10:34;7.43;;;3.38;;
39196;SDS011;42889;51.112;13.772;2022-12-07T16:13:00;8.02;;;3.45;;
39196;SDS011;42889;51.112;13.772;2022-12-07T16:15:27;6.88;;;2.65;;
39196;SDS011;42889;51.112;13.772;2022-12-07T16:17:53;6.07;;;2.40;;
39196;SDS011;42889;51.112;13.772;2022-12-07T16:20:21;10.00;;;3.00;;
39196;SDS011;42889;51.112;13.772;2022-12-07T16:22:50;9.10;;;2.55;;
39196;SDS011;42889;51.112;13.772;2022-12-07T16:25:18;9.23;;;2.88;;
39196;SDS011;42889;51.112;13.772;2022-12-07T16:27:44;4.28;;;1.70;;
39196;SDS011;42889;51.112;13.772;2022-12-07T16:30:12;4.85;;;1.92;;
39196;SDS011;42889;51.112;13.772;2022-12-07T16:32:40;7.60;;;3.03;;
39196;SDS011;42889;51.112;13.772;2022-12-07T16:35:06;4.47;;;1.63;;
39196;SDS011;42889;51.112;13.772;2022-12-07T16:37:33;6.45;;;2.08;;
39196;SDS011;42889;51.112;13.772;2022-12-07T16:40:00;6.50;;;2.13;;
39196;SDS011;42889;51.112;13.772;2022-12-07T16:42:28;5.18;;;1.65;;
39196;SDS011;42889;51.112;13.772;2022-12-07T16:44:58;5.88;;;2.05;;
39196;SDS011;42889;51.112;13.772;2022-12-07T16:47:25;5.82;;;1.70;;
39196;SDS011;42889;51.112;13.772;2022-12-07T16:49:52;6.32;;;1.65;;